createdAt,value
2018-10-05T00:00:25.411Z,24.03
2018-10-05T00:02:54.046Z,24.70
2018-10-05T00:05:22.656Z,26.90
2018-10-05T00:07:51.629Z,23.30
2018-10-05T00:10:20.300Z,23.70
2018-10-05T00:12:48.974Z,24.97
2018-10-05T00:15:17.564Z,27.60
2018-10-05T00:17:46.169Z,23.20
2018-10-05T00:20:14.802Z,24.10
2018-10-05T00:22:43.446Z,25.20
2018-10-05T00:25:12.068Z,24.17
2018-10-05T00:27:40.774Z,24.53
2018-10-05T00:30:09.406Z,24.10
2018-10-05T00:32:38.019Z,24.40
2018-10-05T00:35:06.699Z,21.03
2018-10-05T00:37:35.268Z,21.77
2018-10-05T00:40:03.984Z,24.07
2018-10-05T00:42:32.611Z,22.30
2018-10-05T00:45:01.196Z,23.87
2018-10-05T00:47:29.889Z,21.50
2018-10-05T00:49:58.456Z,23.23
2018-10-05T00:52:27.145Z,22.50
2018-10-05T00:54:55.741Z,22.50
2018-10-05T00:57:24.329Z,18.87
2018-10-05T00:59:52.937Z,21.33
2018-10-05T01:02:21.616Z,21.23
2018-10-05T01:04:50.359Z,23.13
2018-10-05T01:07:18.978Z,22.00
2018-10-05T01:09:47.623Z,24.87
2018-10-05T01:12:16.271Z,23.90
2018-10-05T01:14:44.920Z,23.30
2018-10-05T01:17:13.580Z,22.60
2018-10-05T01:19:42.557Z,23.43
2018-10-05T01:22:11.159Z,22.67
2018-10-05T01:24:39.792Z,22.73
2018-10-05T01:27:08.392Z,21.63
2018-10-05T01:29:37.041Z,24.10
2018-10-05T01:32:05.624Z,22.43
2018-10-05T01:34:34.220Z,23.33
2018-10-05T01:37:02.871Z,22.97
2018-10-05T01:39:31.534Z,23.03
2018-10-05T01:42:00.206Z,24.33
2018-10-05T01:44:28.866Z,22.37
2018-10-05T01:46:57.666Z,22.17
2018-10-05T01:49:26.262Z,23.00
2018-10-05T01:51:54.892Z,21.30
2018-10-05T01:54:24.330Z,22.03
2018-10-05T01:56:52.933Z,23.50
2018-10-05T01:59:21.506Z,20.87
2018-10-05T02:01:50.161Z,23.70
2018-10-05T02:04:18.732Z,24.70
2018-10-05T02:06:47.356Z,22.90
2018-10-05T02:09:16.022Z,21.73
2018-10-05T02:11:44.696Z,22.77
2018-10-05T02:14:13.289Z,24.37
2018-10-05T02:16:41.898Z,21.27
2018-10-05T02:19:10.526Z,23.20
2018-10-05T02:21:39.138Z,22.43
2018-10-05T02:24:07.889Z,22.30
2018-10-05T02:26:36.521Z,20.60
2018-10-05T02:29:05.157Z,20.47
2018-10-05T02:31:33.744Z,20.60
2018-10-05T02:34:02.423Z,21.27
2018-10-05T02:36:31.047Z,20.20
2018-10-05T02:38:59.655Z,20.70
2018-10-05T02:41:28.345Z,18.60
2018-10-05T02:43:56.986Z,20.43
2018-10-05T02:46:25.623Z,20.60
2018-10-05T02:48:54.264Z,20.93
2018-10-05T02:51:22.924Z,20.33
2018-10-05T02:53:51.545Z,20.40
2018-10-05T02:56:20.321Z,20.43
2018-10-05T02:58:48.937Z,20.20
2018-10-05T03:01:28.701Z,20.43
2018-10-05T03:03:57.298Z,20.93
2018-10-05T03:06:25.923Z,18.80
2018-10-05T03:08:54.543Z,20.73
2018-10-05T03:11:23.176Z,20.90
2018-10-05T03:13:51.841Z,19.63
2018-10-05T03:16:20.446Z,18.47
2018-10-05T03:18:49.069Z,19.77
2018-10-05T03:21:17.694Z,21.33
2018-10-05T03:23:46.296Z,20.10
2018-10-05T03:26:15.027Z,19.70
2018-10-05T03:28:43.612Z,19.47
2018-10-05T03:31:12.243Z,20.17
2018-10-05T03:33:40.919Z,18.73
2018-10-05T03:36:09.517Z,19.60
2018-10-05T03:38:38.144Z,20.53
2018-10-05T03:41:06.961Z,20.03
2018-10-05T03:43:35.602Z,18.70
2018-10-05T03:46:04.248Z,19.23
2018-10-05T03:48:32.844Z,18.30
2018-10-05T03:51:01.546Z,18.77
2018-10-05T03:53:30.191Z,18.63
2018-10-05T03:55:58.817Z,19.30
2018-10-05T03:58:27.409Z,19.80
2018-10-05T04:00:56.039Z,19.83
2018-10-05T04:03:24.632Z,19.67
2018-10-05T04:05:53.301Z,19.17
2018-10-05T04:08:21.884Z,19.47
2018-10-05T04:10:50.521Z,17.90
2018-10-05T04:13:19.172Z,19.27
2018-10-05T04:15:47.858Z,18.77
2018-10-05T04:18:16.485Z,18.17
2018-10-05T04:20:45.080Z,18.87
2018-10-05T04:23:13.685Z,20.20
2018-10-05T04:25:42.346Z,19.97
2018-10-05T04:28:11.024Z,20.00
2018-10-05T04:30:39.658Z,19.40
2018-10-05T04:33:08.314Z,19.50
2018-10-05T04:35:36.978Z,19.90
2018-10-05T04:38:05.614Z,19.20
2018-10-05T04:40:34.334Z,19.00
2018-10-05T04:43:02.942Z,18.10
2018-10-05T04:45:31.584Z,20.47
2018-10-05T04:48:00.207Z,20.13
2018-10-05T04:50:28.902Z,19.80
2018-10-05T04:52:57.472Z,20.00
2018-10-05T04:55:26.090Z,17.97
2018-10-05T04:57:54.721Z,17.47
2018-10-05T05:00:23.332Z,17.20
2018-10-05T05:02:51.952Z,18.73
2018-10-05T05:05:20.606Z,18.53
2018-10-05T05:07:49.269Z,19.87
2018-10-05T05:10:17.938Z,18.00
2018-10-05T05:12:46.641Z,18.93
2018-10-05T05:15:15.230Z,17.67
2018-10-05T05:17:43.945Z,18.23
2018-10-05T05:20:12.583Z,20.70
2018-10-05T05:22:41.226Z,18.07
2018-10-05T05:25:09.816Z,17.87
2018-10-05T05:27:38.450Z,18.10
2018-10-05T05:30:07.210Z,19.67
2018-10-05T05:32:35.878Z,19.60
2018-10-05T05:35:04.534Z,18.77
2018-10-05T05:37:33.103Z,20.20
2018-10-05T05:40:01.735Z,18.17
2018-10-05T05:42:30.387Z,19.33
2018-10-05T05:44:59.027Z,20.60
2018-10-05T05:47:27.763Z,18.87
2018-10-05T05:49:56.408Z,18.73
2018-10-05T05:52:25.094Z,21.07
2018-10-05T05:54:53.735Z,20.83
2018-10-05T05:57:22.357Z,19.10
2018-10-05T05:59:51.068Z,18.27
2018-10-05T06:02:19.713Z,20.57
2018-10-05T06:04:48.376Z,23.57
2018-10-05T06:07:17.052Z,25.70
2018-10-05T06:09:45.726Z,24.03
2018-10-05T06:12:14.355Z,24.80
2018-10-05T06:14:42.962Z,24.17
2018-10-05T06:17:11.629Z,26.83
2018-10-05T06:19:40.252Z,27.00
2018-10-05T06:22:08.943Z,26.03
2018-10-05T06:24:37.484Z,23.60
2018-10-05T06:27:06.224Z,23.50
2018-10-05T06:29:34.900Z,21.27
2018-10-05T06:32:04.004Z,22.83
2018-10-05T06:34:32.589Z,21.87
2018-10-05T06:37:01.197Z,21.97
2018-10-05T06:39:29.844Z,22.57
2018-10-05T06:41:58.575Z,21.77
2018-10-05T06:44:27.157Z,22.10
2018-10-05T06:46:55.785Z,22.00
2018-10-05T06:49:24.473Z,19.40
2018-10-05T06:51:53.097Z,21.93
2018-10-05T06:54:21.701Z,22.53
2018-10-05T06:56:50.369Z,23.10
2018-10-05T06:59:18.972Z,23.17
2018-10-05T07:01:47.644Z,23.47
2018-10-05T07:04:16.258Z,23.83
2018-10-05T07:06:44.828Z,22.57
2018-10-05T07:09:13.482Z,22.87
2018-10-05T07:11:42.109Z,20.17
2018-10-05T07:14:10.734Z,21.47
2018-10-05T07:16:39.373Z,21.70
2018-10-05T07:19:08.088Z,22.77
2018-10-05T07:21:36.668Z,21.40
2018-10-05T07:24:05.327Z,38.00
2018-10-05T07:26:33.964Z,27.50
2018-10-05T07:29:02.581Z,26.90
2018-10-05T07:31:31.184Z,24.03
2018-10-05T07:33:59.812Z,28.73
2018-10-05T07:36:28.407Z,20.83
2018-10-05T07:38:57.005Z,20.73
2018-10-05T07:41:25.655Z,19.03
2018-10-05T07:43:54.344Z,20.50
2018-10-05T07:46:22.955Z,19.27
2018-10-05T07:48:51.658Z,18.03
2018-10-05T07:51:20.281Z,20.50
2018-10-05T07:53:48.910Z,16.73
2018-10-05T07:56:17.520Z,20.70
2018-10-05T07:58:46.127Z,18.70
2018-10-05T08:01:14.732Z,16.80
2018-10-05T08:03:43.332Z,16.17
2018-10-05T08:06:11.980Z,19.03
2018-10-05T08:08:40.588Z,18.07
2018-10-05T08:11:09.523Z,18.40
2018-10-05T08:13:38.179Z,18.70
2018-10-05T08:16:07.026Z,17.33
2018-10-05T08:18:35.661Z,18.20
2018-10-05T08:21:04.290Z,16.40
2018-10-05T08:23:32.957Z,17.50
2018-10-05T08:26:01.669Z,17.70
2018-10-05T08:28:30.336Z,16.83
2018-10-05T08:30:58.917Z,16.10
2018-10-05T08:33:27.565Z,15.83
2018-10-05T08:35:56.269Z,15.50
2018-10-05T08:38:24.916Z,16.00
2018-10-05T08:40:53.505Z,15.57
2018-10-05T08:43:22.174Z,15.70
2018-10-05T08:45:50.823Z,15.00
2018-10-05T08:48:19.408Z,16.50
2018-10-05T08:50:48.053Z,15.43
2018-10-05T08:53:16.746Z,15.23
2018-10-05T08:55:45.392Z,14.33
2018-10-05T08:58:13.979Z,15.23
2018-10-05T09:00:42.649Z,13.37
2018-10-05T09:03:11.326Z,14.37
2018-10-05T09:05:39.955Z,14.43
2018-10-05T09:08:08.605Z,15.23
2018-10-05T09:10:37.318Z,13.43
2018-10-05T09:13:06.881Z,15.57
2018-10-05T09:15:35.545Z,13.83
2018-10-05T09:18:04.250Z,15.33
2018-10-05T09:20:32.896Z,14.77
2018-10-05T09:23:01.619Z,13.93
2018-10-05T09:25:30.277Z,14.33
2018-10-05T09:27:58.900Z,13.80
2018-10-05T09:30:27.582Z,14.80
2018-10-05T09:32:56.236Z,12.37
2018-10-05T09:35:24.892Z,12.63
2018-10-05T09:37:53.617Z,13.33
2018-10-05T09:40:22.209Z,11.10
2018-10-05T09:42:50.812Z,11.57
2018-10-05T09:45:19.530Z,10.00
2018-10-05T09:47:48.167Z,9.40
2018-10-05T09:50:16.807Z,9.87
2018-10-05T09:52:45.550Z,10.20
2018-10-05T09:55:14.089Z,9.87
2018-10-05T09:57:42.719Z,9.50
2018-10-05T10:00:15.571Z,8.47
2018-10-05T10:02:52.296Z,9.70
2018-10-05T10:05:21.997Z,8.93
2018-10-05T10:07:50.694Z,7.30
2018-10-05T10:10:19.381Z,7.50
2018-10-05T10:12:47.998Z,7.90
2018-10-05T10:15:16.669Z,8.30
2018-10-05T10:17:45.385Z,7.17
2018-10-05T10:20:14.230Z,7.00
2018-10-05T10:22:42.899Z,7.33
2018-10-05T10:25:11.970Z,6.63
2018-10-05T10:27:40.612Z,7.10
2018-10-05T10:30:09.372Z,6.83
2018-10-05T10:32:37.996Z,7.10
2018-10-05T10:35:06.668Z,6.30
2018-10-05T10:37:35.364Z,6.60
2018-10-05T10:40:04.091Z,6.10
2018-10-05T10:42:32.759Z,7.03
2018-10-05T10:45:01.402Z,5.90
2018-10-05T10:47:30.357Z,6.30
2018-10-05T10:49:59.032Z,6.50
2018-10-05T10:52:27.680Z,6.20
2018-10-05T10:54:57.327Z,6.23
2018-10-05T10:57:25.976Z,5.33
2018-10-05T10:59:54.740Z,5.67
2018-10-05T11:02:23.398Z,6.03
2018-10-05T11:04:52.031Z,6.10
2018-10-05T11:07:20.730Z,6.43
2018-10-05T11:09:49.445Z,5.63
2018-10-05T11:12:18.119Z,6.03
2018-10-05T11:14:46.796Z,5.30
2018-10-05T11:17:15.445Z,5.00
2018-10-05T11:19:44.110Z,4.83
2018-10-05T11:22:12.708Z,5.10
2018-10-05T11:24:41.382Z,5.33
2018-10-05T11:27:10.626Z,5.90
2018-10-05T11:29:39.303Z,5.57
2018-10-05T11:32:07.959Z,5.43
2018-10-05T11:34:36.606Z,5.20
2018-10-05T11:37:05.389Z,5.20
2018-10-05T11:39:34.063Z,6.00
2018-10-05T11:42:02.709Z,5.77
2018-10-05T11:44:31.431Z,4.70
2018-10-05T11:47:00.125Z,5.00
2018-10-05T11:49:28.814Z,4.60
2018-10-05T11:51:57.517Z,5.00
2018-10-05T11:54:26.218Z,5.27
2018-10-05T11:56:54.893Z,5.70
2018-10-05T11:59:23.577Z,5.93
2018-10-05T12:01:52.285Z,5.50
2018-10-05T12:04:20.920Z,5.57
2018-10-05T12:06:49.602Z,5.07
2018-10-05T12:09:18.235Z,4.50
2018-10-05T12:11:46.989Z,4.87
2018-10-05T12:14:15.584Z,4.13
2018-10-05T12:16:44.221Z,3.97
2018-10-05T12:19:12.890Z,4.17
2018-10-05T12:21:41.502Z,4.07
2018-10-05T12:24:10.157Z,4.40
2018-10-05T12:26:38.868Z,3.80
2018-10-05T12:29:07.505Z,4.30
2018-10-05T12:31:36.117Z,4.47
2018-10-05T12:34:04.881Z,5.50
2018-10-05T12:36:33.564Z,7.10
2018-10-05T12:39:02.228Z,5.70
2018-10-05T12:41:30.854Z,4.67
2018-10-05T12:43:59.511Z,4.70
2018-10-05T12:46:28.176Z,4.73
2018-10-05T12:48:56.828Z,5.07
2018-10-05T12:51:25.494Z,5.60
2018-10-05T12:53:54.199Z,4.67
2018-10-05T12:56:22.942Z,5.67
2018-10-05T12:58:51.552Z,5.63
2018-10-05T13:01:20.230Z,5.03
2018-10-05T13:03:48.901Z,4.60
2018-10-05T13:06:17.597Z,4.87
2018-10-05T13:08:46.272Z,4.20
2018-10-05T13:11:14.912Z,4.90
2018-10-05T13:13:43.552Z,4.83
2018-10-05T13:16:12.196Z,4.60
2018-10-05T13:18:40.880Z,4.37
2018-10-05T13:21:09.525Z,4.10
2018-10-05T13:23:38.172Z,4.47
2018-10-05T13:26:07.326Z,5.00
2018-10-05T13:28:36.040Z,4.47
2018-10-05T13:31:04.747Z,4.77
2018-10-05T13:33:33.469Z,5.03
2018-10-05T13:36:02.168Z,5.43
2018-10-05T13:38:30.842Z,6.20
2018-10-05T13:40:59.445Z,4.50
2018-10-05T13:43:28.073Z,5.10
2018-10-05T13:45:56.733Z,4.57
2018-10-05T13:48:25.393Z,5.50
2018-10-05T13:50:54.135Z,4.47
2018-10-05T13:53:22.795Z,4.80
2018-10-05T13:55:51.436Z,4.30
2018-10-05T13:58:20.108Z,4.50
2018-10-05T14:00:48.745Z,4.40
2018-10-05T14:03:17.545Z,4.10
2018-10-05T14:05:46.166Z,3.33
2018-10-05T14:08:14.803Z,3.53
2018-10-05T14:10:43.636Z,3.50
2018-10-05T14:13:12.251Z,3.20
2018-10-05T14:15:40.848Z,3.80
2018-10-05T14:18:09.532Z,4.10
2018-10-05T14:20:38.235Z,3.47
2018-10-05T14:23:06.839Z,3.53
2018-10-05T14:25:35.485Z,3.43
2018-10-05T14:28:04.125Z,3.23
2018-10-05T14:30:32.756Z,3.70
2018-10-05T14:33:01.481Z,2.90
2018-10-05T14:35:30.102Z,3.00
2018-10-05T14:37:58.785Z,2.80
2018-10-05T14:40:27.402Z,3.20
2018-10-05T14:42:55.999Z,3.27
2018-10-05T14:45:24.636Z,2.60
2018-10-05T14:47:53.276Z,3.27
2018-10-05T14:50:21.927Z,2.83
2018-10-05T14:52:50.589Z,4.07
2018-10-05T14:55:19.294Z,3.37
2018-10-05T14:57:47.910Z,3.37
2018-10-05T15:00:16.525Z,3.67
2018-10-05T15:02:45.174Z,2.83
2018-10-05T15:05:13.770Z,3.03
2018-10-05T15:07:42.429Z,3.80
2018-10-05T15:10:11.047Z,3.20
2018-10-05T15:12:39.746Z,3.93
2018-10-05T15:15:08.500Z,3.93
2018-10-05T15:17:37.482Z,3.07
2018-10-05T15:20:06.175Z,2.60
2018-10-05T15:22:34.808Z,2.83
2018-10-05T15:25:03.591Z,2.87
2018-10-05T15:27:32.414Z,2.70
2018-10-05T15:30:01.214Z,2.87
2018-10-05T15:32:30.169Z,2.93
2018-10-05T15:35:00.330Z,3.30
2018-10-05T15:37:29.217Z,3.33
2018-10-05T15:39:57.935Z,3.40
2018-10-05T15:42:26.786Z,2.80
2018-10-05T15:44:55.422Z,7.10
2018-10-05T15:47:24.050Z,4.80
2018-10-05T15:49:52.806Z,4.00
2018-10-05T15:52:21.399Z,3.53
2018-10-05T15:54:50.221Z,2.70
2018-10-05T15:57:18.936Z,3.43
2018-10-05T15:59:47.891Z,2.83
2018-10-05T16:02:16.541Z,2.70
2018-10-05T16:04:45.428Z,2.80
2018-10-05T16:07:14.338Z,2.63
2018-10-05T16:09:43.154Z,3.53
2018-10-05T16:12:11.988Z,2.67
2018-10-05T16:14:40.637Z,3.23
2018-10-05T16:17:09.264Z,3.10
2018-10-05T16:19:37.948Z,3.60
2018-10-05T16:22:06.705Z,3.90
2018-10-05T16:24:39.628Z,3.10
2018-10-05T16:27:08.507Z,3.23
2018-10-05T16:29:37.546Z,3.27
2018-10-05T16:32:06.630Z,4.33
2018-10-05T16:34:35.592Z,3.60
2018-10-05T16:37:05.370Z,3.37
2018-10-05T16:39:34.781Z,3.90
2018-10-05T16:42:03.648Z,4.20
2018-10-05T16:44:32.285Z,3.80
2018-10-05T16:47:01.017Z,4.77
2018-10-05T16:49:29.665Z,4.40
2018-10-05T16:51:58.296Z,4.40
2018-10-05T16:54:27.057Z,5.27
2018-10-05T16:56:55.732Z,4.70
2018-10-05T16:59:24.405Z,4.63
2018-10-05T17:01:53.005Z,5.13
2018-10-05T17:04:21.654Z,4.67
2018-10-05T17:06:50.300Z,5.20
2018-10-05T17:09:18.955Z,5.60
2018-10-05T17:11:47.575Z,4.93
2018-10-05T17:14:16.172Z,5.30
2018-10-05T17:16:44.771Z,5.00
2018-10-05T17:19:13.449Z,5.50
2018-10-05T17:21:42.052Z,4.90
2018-10-05T17:24:10.729Z,5.50
2018-10-05T17:26:39.382Z,5.10
2018-10-05T17:29:08.092Z,5.40
2018-10-05T17:31:36.735Z,7.00
2018-10-05T17:34:05.369Z,7.10
2018-10-05T17:36:34.016Z,7.73
2018-10-05T17:39:02.712Z,16.40
2018-10-05T17:41:31.377Z,12.03
2018-10-05T17:44:00.025Z,12.00
2018-10-05T17:46:28.664Z,11.70
2018-10-05T17:48:57.338Z,10.83
2018-10-05T17:51:25.933Z,12.50
2018-10-05T17:53:54.531Z,11.40
2018-10-05T17:56:23.189Z,14.43
2018-10-05T17:58:51.797Z,16.50
2018-10-05T18:01:20.430Z,19.87
2018-10-05T18:03:49.104Z,20.90
2018-10-05T18:06:17.762Z,25.43
2018-10-05T18:08:46.440Z,35.40
2018-10-05T18:11:15.143Z,23.13
2018-10-05T18:13:44.405Z,20.03
2018-10-05T18:16:13.312Z,21.30
2018-10-05T18:18:41.944Z,18.93
2018-10-05T18:21:10.626Z,19.27
2018-10-05T18:23:39.257Z,18.30
2018-10-05T18:26:08.011Z,17.50
2018-10-05T18:28:36.679Z,16.60
2018-10-05T18:31:05.400Z,16.57
2018-10-05T18:33:34.020Z,15.67
2018-10-05T18:36:02.779Z,15.43
2018-10-05T18:38:31.463Z,18.83
2018-10-05T18:41:00.057Z,25.47
2018-10-05T18:43:28.709Z,25.07
2018-10-05T18:45:57.327Z,23.80
2018-10-05T18:48:26.009Z,25.37
2018-10-05T18:50:54.679Z,24.70
2018-10-05T18:53:23.321Z,20.40
2018-10-05T18:55:52.046Z,19.73
2018-10-05T18:58:20.726Z,20.60
2018-10-05T19:00:49.412Z,19.60
2018-10-05T19:03:18.645Z,20.63
2018-10-05T19:05:47.613Z,16.17
2018-10-05T19:08:16.471Z,17.90
2018-10-05T19:10:45.145Z,19.80
2018-10-05T19:13:13.843Z,20.10
2018-10-05T19:15:43.424Z,18.47
2018-10-05T19:18:12.055Z,17.13
2018-10-05T19:20:40.714Z,17.70
2018-10-05T19:23:09.471Z,20.00
2018-10-05T19:25:38.081Z,20.00
2018-10-05T19:28:06.674Z,21.37
2018-10-05T19:30:35.366Z,21.47
2018-10-05T19:33:04.313Z,27.20
2018-10-05T19:35:32.961Z,63.77
2018-10-05T19:38:01.607Z,40.00
2018-10-05T19:40:30.228Z,27.60
2018-10-05T19:42:58.911Z,19.43
2018-10-05T19:45:28.226Z,17.97
2018-10-05T19:47:57.097Z,17.87
2018-10-05T19:50:25.913Z,19.23
2018-10-05T19:52:54.635Z,17.07
2018-10-05T19:55:23.243Z,20.37
2018-10-05T19:57:51.977Z,20.07
2018-10-05T20:00:20.630Z,17.03
2018-10-05T20:02:49.255Z,16.00
2018-10-05T20:05:17.901Z,15.30
2018-10-05T20:07:46.589Z,14.00
2018-10-05T20:10:15.246Z,13.93
2018-10-05T20:12:43.917Z,12.90
2018-10-05T20:15:12.559Z,13.50
2018-10-05T20:17:41.226Z,13.83
2018-10-05T20:20:09.824Z,12.60
2018-10-05T20:22:38.413Z,12.17
2018-10-05T20:25:07.130Z,11.90
2018-10-05T20:27:35.793Z,12.23
2018-10-05T20:30:05.338Z,11.27
2018-10-05T20:32:34.037Z,12.33
2018-10-05T20:35:02.658Z,12.23
2018-10-05T20:37:31.577Z,14.27
2018-10-05T20:40:00.045Z,13.50
2018-10-05T20:42:28.714Z,14.90
2018-10-05T20:44:57.346Z,17.83
2018-10-05T20:47:25.999Z,16.27
2018-10-05T20:49:54.682Z,18.80
2018-10-05T20:52:23.360Z,15.10
2018-10-05T20:54:51.993Z,14.90
2018-10-05T20:57:20.672Z,15.10
2018-10-05T20:59:49.315Z,13.40
2018-10-05T21:02:17.978Z,13.40
2018-10-05T21:04:46.623Z,12.53
2018-10-05T21:07:15.287Z,13.07
2018-10-05T21:09:43.914Z,12.83
2018-10-05T21:12:12.565Z,12.07
2018-10-05T21:14:41.176Z,12.03
2018-10-05T21:17:09.769Z,10.97
2018-10-05T21:19:38.443Z,12.80
2018-10-05T21:22:07.051Z,11.77
2018-10-05T21:24:35.681Z,12.63
2018-10-05T21:27:04.362Z,11.87
2018-10-05T21:29:33.008Z,11.73
2018-10-05T21:32:01.767Z,11.63
2018-10-05T21:34:30.425Z,11.07
2018-10-05T21:36:59.113Z,11.63
2018-10-05T21:39:27.818Z,12.27
2018-10-05T21:41:56.456Z,10.57
2018-10-05T21:44:25.152Z,10.70
2018-10-05T21:46:53.793Z,9.93
2018-10-05T21:49:22.469Z,10.53
2018-10-05T21:51:51.078Z,10.30
2018-10-05T21:54:19.714Z,11.90
2018-10-05T21:56:48.388Z,9.97
2018-10-05T21:59:17.060Z,10.80
2018-10-05T22:01:45.725Z,9.80
2018-10-05T22:04:14.341Z,10.67
2018-10-05T22:06:43.016Z,9.17
2018-10-05T22:09:12.269Z,9.90
2018-10-05T22:11:40.905Z,10.17
2018-10-05T22:14:09.529Z,10.13
2018-10-05T22:16:38.153Z,9.97
2018-10-05T22:19:07.043Z,10.90
2018-10-05T22:21:35.819Z,10.03
2018-10-05T22:24:04.496Z,9.80
2018-10-05T22:26:33.118Z,9.10
2018-10-05T22:29:01.738Z,9.40
2018-10-05T22:31:30.806Z,9.50
2018-10-05T22:33:59.428Z,9.97
2018-10-05T22:36:28.075Z,9.57
2018-10-05T22:38:56.686Z,10.00
2018-10-05T22:41:25.368Z,11.33
2018-10-05T22:43:53.988Z,9.47
2018-10-05T22:46:22.614Z,9.07
2018-10-05T22:48:51.276Z,9.67
2018-10-05T22:51:19.934Z,9.33
2018-10-05T22:53:48.597Z,9.00
2018-10-05T22:56:17.273Z,10.17
2018-10-05T22:58:45.925Z,9.63
2018-10-05T23:01:14.577Z,9.70
2018-10-05T23:03:43.341Z,9.90
2018-10-05T23:06:11.949Z,9.30
2018-10-05T23:08:40.608Z,9.23
2018-10-05T23:11:09.252Z,10.90
2018-10-05T23:13:37.841Z,10.57
2018-10-05T23:16:06.526Z,10.00
2018-10-05T23:18:35.254Z,11.30
2018-10-05T23:21:03.903Z,10.17
2018-10-05T23:23:32.552Z,10.30
2018-10-05T23:26:01.221Z,10.17
2018-10-05T23:28:29.865Z,9.80
2018-10-05T23:30:58.554Z,9.10
2018-10-05T23:33:27.199Z,10.27
2018-10-05T23:35:55.857Z,10.10
2018-10-05T23:38:24.548Z,10.40
2018-10-05T23:40:53.132Z,11.50
2018-10-05T23:43:21.753Z,10.60
2018-10-05T23:45:50.412Z,11.53
2018-10-05T23:48:19.054Z,11.27
2018-10-05T23:50:47.706Z,11.50
2018-10-05T23:53:16.389Z,11.63
2018-10-05T23:55:45.041Z,11.27
2018-10-05T23:58:13.685Z,11.70
